Cape Broyle, Canada
Current Conditions -  °F | °C
As of 3:00 PM on Thursday 23 Oct 2014 (Local Time) from CYYT Reporting Station
Broken Clouds Broken Clouds  
Wind Chill: 41°   Ceiling: 1400
Heat Index: 46°   Visibility: 15mi
Dew Point: 41°   Wind: 12mph
Humidity: 81%   Direction: 120°ESE
Pressure: 30.32"   Gusts: NA
Location:  47.08°N, 52.95°W
Report Text: CYYT 231700Z 12010KT 15SM BKN014 08/05 A3032 RMK SC7 SLP273
Loading
Personal Weather Stations






























Interactive Weather Map
Tropical Storm Tracking
New forecast layout! Learn more

10-Day Weather Forecast

Advertisements
Track Severe Weather on mobile